sensor_id;sensor_type;location;lat;lon;timestamp;P1;durP1;ratioP1;P2;durP2;ratioP2
49153;SDS011;49455;52.252;9.124;2023-06-14T00:01:27;5.88;;;3.53;;
49153;SDS011;49455;52.252;9.124;2023-06-14T00:06:28;6.05;;;3.70;;
49153;SDS011;49455;52.252;9.124;2023-06-14T00:11:29;5.85;;;3.30;;
49153;SDS011;49455;52.252;9.124;2023-06-14T00:16:31;10.18;;;3.60;;
49153;SDS011;49455;52.252;9.124;2023-06-14T00:21:31;5.10;;;3.45;;
49153;SDS011;49455;52.252;9.124;2023-06-14T00:26:32;8.07;;;3.55;;
49153;SDS011;49455;52.252;9.124;2023-06-14T00:31:32;6.38;;;3.75;;
49153;SDS011;49455;52.252;9.124;2023-06-14T00:36:33;6.55;;;3.30;;
49153;SDS011;49455;52.252;9.124;2023-06-14T00:41:33;7.90;;;3.75;;
49153;SDS011;49455;52.252;9.124;2023-06-14T00:46:34;8.05;;;3.67;;
49153;SDS011;49455;52.252;9.124;2023-06-14T00:51:34;5.88;;;3.58;;
49153;SDS011;49455;52.252;9.124;2023-06-14T00:56:37;7.18;;;3.65;;
49153;SDS011;49455;52.252;9.124;2023-06-14T01:01:39;8.25;;;3.60;;
49153;SDS011;49455;52.252;9.124;2023-06-14T01:06:49;6.28;;;3.65;;
49153;SDS011;49455;52.252;9.124;2023-06-14T01:17:09;7.65;;;3.40;;
49153;SDS011;49455;52.252;9.124;2023-06-14T01:22:09;7.05;;;3.67;;
49153;SDS011;49455;52.252;9.124;2023-06-14T01:27:10;6.67;;;3.20;;
49153;SDS011;49455;52.252;9.124;2023-06-14T01:32:12;7.22;;;3.28;;
49153;SDS011;49455;52.252;9.124;2023-06-14T01:37:12;6.45;;;3.30;;
49153;SDS011;49455;52.252;9.124;2023-06-14T01:42:14;7.28;;;3.30;;
49153;SDS011;49455;52.252;9.124;2023-06-14T01:47:15;7.47;;;3.20;;
49153;SDS011;49455;52.252;9.124;2023-06-14T01:52:16;8.18;;;3.13;;
49153;SDS011;49455;52.252;9.124;2023-06-14T01:57:17;5.32;;;3.00;;
49153;SDS011;49455;52.252;9.124;2023-06-14T02:02:17;6.07;;;3.13;;
49153;SDS011;49455;52.252;9.124;2023-06-14T02:07:18;5.78;;;3.05;;
49153;SDS011;49455;52.252;9.124;2023-06-14T02:12:18;9.05;;;3.45;;
49153;SDS011;49455;52.252;9.124;2023-06-14T02:17:19;5.85;;;3.17;;
49153;SDS011;49455;52.252;9.124;2023-06-14T02:22:19;6.50;;;3.05;;
49153;SDS011;49455;52.252;9.124;2023-06-14T02:27:20;5.90;;;3.25;;
49153;SDS011;49455;52.252;9.124;2023-06-14T02:32:20;6.20;;;3.70;;
49153;SDS011;49455;52.252;9.124;2023-06-14T02:37:20;7.15;;;3.28;;
49153;SDS011;49455;52.252;9.124;2023-06-14T02:42:21;6.80;;;3.60;;
49153;SDS011;49455;52.252;9.124;2023-06-14T02:47:21;5.40;;;3.00;;
49153;SDS011;49455;52.252;9.124;2023-06-14T02:52:22;11.15;;;3.30;;
49153;SDS011;49455;52.252;9.124;2023-06-14T02:57:22;8.43;;;3.17;;
49153;SDS011;49455;52.252;9.124;2023-06-14T03:02:23;6.72;;;3.15;;
49153;SDS011;49455;52.252;9.124;2023-06-14T03:07:23;5.30;;;3.15;;
49153;SDS011;49455;52.252;9.124;2023-06-14T03:12:25;7.43;;;3.10;;
49153;SDS011;49455;52.252;9.124;2023-06-14T03:17:26;6.07;;;3.40;;
49153;SDS011;49455;52.252;9.124;2023-06-14T03:22:26;6.45;;;3.60;;
49153;SDS011;49455;52.252;9.124;2023-06-14T03:27:27;7.50;;;3.40;;
49153;SDS011;49455;52.252;9.124;2023-06-14T03:32:28;5.07;;;3.13;;
49153;SDS011;49455;52.252;9.124;2023-06-14T03:37:28;7.18;;;3.30;;
49153;SDS011;49455;52.252;9.124;2023-06-14T03:42:29;4.82;;;3.00;;
49153;SDS011;49455;52.252;9.124;2023-06-14T03:47:30;7.13;;;3.42;;
49153;SDS011;49455;52.252;9.124;2023-06-14T03:52:31;5.50;;;3.00;;
49153;SDS011;49455;52.252;9.124;2023-06-14T03:57:31;5.82;;;3.13;;
49153;SDS011;49455;52.252;9.124;2023-06-14T04:02:32;7.60;;;2.97;;
49153;SDS011;49455;52.252;9.124;2023-06-14T04:07:33;5.47;;;3.00;;
49153;SDS011;49455;52.252;9.124;2023-06-14T04:12:34;7.40;;;3.40;;
49153;SDS011;49455;52.252;9.124;2023-06-14T04:17:35;7.03;;;3.10;;
49153;SDS011;49455;52.252;9.124;2023-06-14T04:22:37;5.90;;;2.95;;
49153;SDS011;49455;52.252;9.124;2023-06-14T04:27:39;5.45;;;3.03;;
49153;SDS011;49455;52.252;9.124;2023-06-14T04:32:40;4.97;;;2.90;;
49153;SDS011;49455;52.252;9.124;2023-06-14T04:37:42;5.03;;;2.90;;
49153;SDS011;49455;52.252;9.124;2023-06-14T04:42:43;6.13;;;2.78;;
49153;SDS011;49455;52.252;9.124;2023-06-14T04:47:44;7.75;;;3.00;;
49153;SDS011;49455;52.252;9.124;2023-06-14T04:52:45;7.90;;;3.10;;
49153;SDS011;49455;52.252;9.124;2023-06-14T04:57:45;5.57;;;2.97;;
49153;SDS011;49455;52.252;9.124;2023-06-14T05:02:46;9.38;;;3.17;;
49153;SDS011;49455;52.252;9.124;2023-06-14T05:07:47;4.57;;;3.08;;
49153;SDS011;49455;52.252;9.124;2023-06-14T05:12:47;5.47;;;3.22;;
49153;SDS011;49455;52.252;9.124;2023-06-14T05:17:49;6.35;;;3.08;;
49153;SDS011;49455;52.252;9.124;2023-06-14T05:22:50;4.60;;;2.92;;
49153;SDS011;49455;52.252;9.124;2023-06-14T05:27:51;5.70;;;3.05;;
49153;SDS011;49455;52.252;9.124;2023-06-14T05:32:52;7.22;;;3.65;;
49153;SDS011;49455;52.252;9.124;2023-06-14T05:37:52;7.20;;;3.50;;
49153;SDS011;49455;52.252;9.124;2023-06-14T05:42:53;6.75;;;3.30;;
49153;SDS011;49455;52.252;9.124;2023-06-14T05:47:53;9.00;;;3.38;;
49153;SDS011;49455;52.252;9.124;2023-06-14T05:52:54;6.95;;;3.15;;
49153;SDS011;49455;52.252;9.124;2023-06-14T05:57:54;7.60;;;4.00;;
49153;SDS011;49455;52.252;9.124;2023-06-14T06:02:54;6.50;;;3.20;;
49153;SDS011;49455;52.252;9.124;2023-06-14T06:07:55;4.53;;;2.90;;
49153;SDS011;49455;52.252;9.124;2023-06-14T06:12:55;5.80;;;3.20;;
49153;SDS011;49455;52.252;9.124;2023-06-14T06:17:55;5.10;;;2.73;;
49153;SDS011;49455;52.252;9.124;2023-06-14T06:22:56;6.33;;;3.20;;
49153;SDS011;49455;52.252;9.124;2023-06-14T06:27:57;4.85;;;3.00;;
49153;SDS011;49455;52.252;9.124;2023-06-14T06:32:58;5.15;;;2.78;;
49153;SDS011;49455;52.252;9.124;2023-06-14T06:37:58;6.00;;;2.73;;
49153;SDS011;49455;52.252;9.124;2023-06-14T06:42:59;6.63;;;3.00;;
49153;SDS011;49455;52.252;9.124;2023-06-14T06:48:01;5.15;;;2.55;;
49153;SDS011;49455;52.252;9.124;2023-06-14T06:53:01;5.72;;;2.55;;
49153;SDS011;49455;52.252;9.124;2023-06-14T06:58:02;10.05;;;2.85;;
49153;SDS011;49455;52.252;9.124;2023-06-14T07:03:02;5.50;;;3.10;;
49153;SDS011;49455;52.252;9.124;2023-06-14T07:08:03;6.68;;;3.20;;
49153;SDS011;49455;52.252;9.124;2023-06-14T07:13:03;4.60;;;2.53;;
49153;SDS011;49455;52.252;9.124;2023-06-14T07:18:04;4.13;;;2.47;;
49153;SDS011;49455;52.252;9.124;2023-06-14T07:23:04;5.60;;;2.80;;
49153;SDS011;49455;52.252;9.124;2023-06-14T07:28:04;6.57;;;2.73;;
49153;SDS011;49455;52.252;9.124;2023-06-14T07:33:05;6.10;;;2.70;;
49153;SDS011;49455;52.252;9.124;2023-06-14T07:38:05;5.80;;;2.70;;
49153;SDS011;49455;52.252;9.124;2023-06-14T07:43:08;5.22;;;2.40;;
49153;SDS011;49455;52.252;9.124;2023-06-14T07:48:09;4.67;;;3.33;;
49153;SDS011;49455;52.252;9.124;2023-06-14T07:53:12;6.15;;;2.40;;
49153;SDS011;49455;52.252;9.124;2023-06-14T07:58:12;4.35;;;2.35;;
49153;SDS011;49455;52.252;9.124;2023-06-14T08:03:13;4.28;;;2.17;;
49153;SDS011;49455;52.252;9.124;2023-06-14T08:08:13;4.57;;;2.30;;
49153;SDS011;49455;52.252;9.124;2023-06-14T08:13:14;3.58;;;1.90;;
49153;SDS011;49455;52.252;9.124;2023-06-14T08:18:14;3.40;;;1.95;;
49153;SDS011;49455;52.252;9.124;2023-06-14T08:23:15;3.67;;;2.10;;
49153;SDS011;49455;52.252;9.124;2023-06-14T08:28:15;4.25;;;2.60;;
49153;SDS011;49455;52.252;9.124;2023-06-14T08:33:16;3.97;;;2.30;;
49153;SDS011;49455;52.252;9.124;2023-06-14T08:38:16;3.83;;;2.10;;
49153;SDS011;49455;52.252;9.124;2023-06-14T08:43:16;3.47;;;2.20;;
49153;SDS011;49455;52.252;9.124;2023-06-14T08:48:17;5.33;;;2.67;;
49153;SDS011;49455;52.252;9.124;2023-06-14T08:53:18;3.80;;;1.98;;
49153;SDS011;49455;52.252;9.124;2023-06-14T08:58:19;4.72;;;2.70;;
49153;SDS011;49455;52.252;9.124;2023-06-14T09:03:19;3.95;;;2.10;;
49153;SDS011;49455;52.252;9.124;2023-06-14T09:08:19;3.97;;;2.37;;
49153;SDS011;49455;52.252;9.124;2023-06-14T09:13:20;3.80;;;2.30;;
49153;SDS011;49455;52.252;9.124;2023-06-14T09:18:20;4.17;;;2.50;;
49153;SDS011;49455;52.252;9.124;2023-06-14T09:23:20;4.22;;;2.08;;
49153;SDS011;49455;52.252;9.124;2023-06-14T09:28:26;5.55;;;2.30;;
49153;SDS011;49455;52.252;9.124;2023-06-14T09:33:27;4.80;;;2.58;;
49153;SDS011;49455;52.252;9.124;2023-06-14T09:38:27;5.85;;;2.50;;
49153;SDS011;49455;52.252;9.124;2023-06-14T09:43:28;3.58;;;2.00;;
49153;SDS011;49455;52.252;9.124;2023-06-14T09:48:28;4.47;;;2.08;;
49153;SDS011;49455;52.252;9.124;2023-06-14T09:53:30;4.32;;;2.22;;
49153;SDS011;49455;52.252;9.124;2023-06-14T09:58:32;4.20;;;2.40;;
49153;SDS011;49455;52.252;9.124;2023-06-14T10:03:37;3.88;;;1.98;;
49153;SDS011;49455;52.252;9.124;2023-06-14T10:08:38;5.30;;;2.15;;
49153;SDS011;49455;52.252;9.124;2023-06-14T10:13:40;4.40;;;2.20;;
49153;SDS011;49455;52.252;9.124;2023-06-14T10:24:01;5.00;;;2.40;;
49153;SDS011;49455;52.252;9.124;2023-06-14T10:29:08;4.88;;;1.90;;
49153;SDS011;49455;52.252;9.124;2023-06-14T10:34:09;4.40;;;2.28;;
49153;SDS011;49455;52.252;9.124;2023-06-14T10:39:17;7.55;;;2.33;;
49153;SDS011;49455;52.252;9.124;2023-06-14T10:49:37;3.20;;;2.20;;
49153;SDS011;49455;52.252;9.124;2023-06-14T10:55:01;4.63;;;2.45;;
49153;SDS011;49455;52.252;9.124;2023-06-14T11:00:06;5.22;;;2.28;;
49153;SDS011;49455;52.252;9.124;2023-06-14T11:05:08;3.92;;;2.30;;
49153;SDS011;49455;52.252;9.124;2023-06-14T11:15:45;4.45;;;2.20;;
49153;SDS011;49455;52.252;9.124;2023-06-14T11:20:46;3.92;;;2.40;;
49153;SDS011;49455;52.252;9.124;2023-06-14T11:25:50;4.15;;;2.30;;
49153;SDS011;49455;52.252;9.124;2023-06-14T11:31:01;4.43;;;2.60;;
49153;SDS011;49455;52.252;9.124;2023-06-14T11:36:02;5.32;;;2.50;;
49153;SDS011;49455;52.252;9.124;2023-06-14T11:41:03;5.15;;;2.25;;
49153;SDS011;49455;52.252;9.124;2023-06-14T11:46:04;4.87;;;2.40;;
49153;SDS011;49455;52.252;9.124;2023-06-14T11:51:04;4.83;;;2.90;;
49153;SDS011;49455;52.252;9.124;2023-06-14T11:56:05;4.50;;;2.80;;
49153;SDS011;49455;52.252;9.124;2023-06-14T12:01:05;5.78;;;2.55;;
49153;SDS011;49455;52.252;9.124;2023-06-14T12:06:06;5.03;;;3.20;;
49153;SDS011;49455;52.252;9.124;2023-06-14T12:11:13;5.72;;;2.95;;
49153;SDS011;49455;52.252;9.124;2023-06-14T12:16:14;5.05;;;3.05;;
49153;SDS011;49455;52.252;9.124;2023-06-14T12:21:15;5.45;;;3.15;;
49153;SDS011;49455;52.252;9.124;2023-06-14T12:26:18;5.73;;;2.93;;
49153;SDS011;49455;52.252;9.124;2023-06-14T12:31:19;5.25;;;3.20;;
49153;SDS011;49455;52.252;9.124;2023-06-14T12:36:20;5.03;;;2.90;;
49153;SDS011;49455;52.252;9.124;2023-06-14T12:41:21;6.47;;;3.17;;
49153;SDS011;49455;52.252;9.124;2023-06-14T12:46:21;10.88;;;3.33;;
49153;SDS011;49455;52.252;9.124;2023-06-14T12:51:22;7.38;;;3.25;;
49153;SDS011;49455;52.252;9.124;2023-06-14T12:56:22;6.93;;;3.50;;
49153;SDS011;49455;52.252;9.124;2023-06-14T13:01:23;6.32;;;3.35;;
49153;SDS011;49455;52.252;9.124;2023-06-14T13:06:23;6.37;;;3.10;;
49153;SDS011;49455;52.252;9.124;2023-06-14T13:11:24;7.10;;;3.00;;
49153;SDS011;49455;52.252;9.124;2023-06-14T13:16:24;6.67;;;3.20;;
49153;SDS011;49455;52.252;9.124;2023-06-14T13:21:24;6.20;;;3.50;;
49153;SDS011;49455;52.252;9.124;2023-06-14T13:26:25;5.83;;;3.40;;
49153;SDS011;49455;52.252;9.124;2023-06-14T13:31:25;4.60;;;3.17;;
49153;SDS011;49455;52.252;9.124;2023-06-14T13:36:26;6.33;;;3.10;;
49153;SDS011;49455;52.252;9.124;2023-06-14T13:46:28;5.00;;;3.60;;
49153;SDS011;49455;52.252;9.124;2023-06-14T13:51:28;4.53;;;3.30;;
49153;SDS011;49455;52.252;9.124;2023-06-14T13:56:29;5.72;;;3.60;;
49153;SDS011;49455;52.252;9.124;2023-06-14T14:01:29;6.05;;;3.47;;
49153;SDS011;49455;52.252;9.124;2023-06-14T14:06:29;5.13;;;3.20;;
49153;SDS011;49455;52.252;9.124;2023-06-14T14:11:30;8.32;;;3.55;;
49153;SDS011;49455;52.252;9.124;2023-06-14T14:16:30;8.83;;;4.10;;
49153;SDS011;49455;52.252;9.124;2023-06-14T14:21:31;7.32;;;4.13;;
49153;SDS011;49455;52.252;9.124;2023-06-14T14:26:31;7.88;;;3.90;;
49153;SDS011;49455;52.252;9.124;2023-06-14T14:31:32;6.72;;;4.00;;
49153;SDS011;49455;52.252;9.124;2023-06-14T14:36:32;11.23;;;4.85;;
49153;SDS011;49455;52.252;9.124;2023-06-14T14:41:33;7.07;;;4.03;;
49153;SDS011;49455;52.252;9.124;2023-06-14T14:46:34;6.35;;;4.05;;
49153;SDS011;49455;52.252;9.124;2023-06-14T14:51:35;6.75;;;4.18;;
49153;SDS011;49455;52.252;9.124;2023-06-14T14:56:35;5.67;;;4.10;;
49153;SDS011;49455;52.252;9.124;2023-06-14T15:01:35;8.20;;;4.13;;
49153;SDS011;49455;52.252;9.124;2023-06-14T15:06:36;7.77;;;4.60;;
49153;SDS011;49455;52.252;9.124;2023-06-14T15:11:37;6.40;;;3.90;;
49153;SDS011;49455;52.252;9.124;2023-06-14T15:16:41;7.97;;;4.10;;
49153;SDS011;49455;52.252;9.124;2023-06-14T15:21:41;7.95;;;4.57;;
49153;SDS011;49455;52.252;9.124;2023-06-14T15:26:42;6.82;;;4.05;;
49153;SDS011;49455;52.252;9.124;2023-06-14T15:31:42;7.78;;;4.30;;
49153;SDS011;49455;52.252;9.124;2023-06-14T15:36:44;9.20;;;4.60;;
49153;SDS011;49455;52.252;9.124;2023-06-14T15:41:44;10.00;;;4.20;;
49153;SDS011;49455;52.252;9.124;2023-06-14T15:46:45;9.05;;;4.40;;
49153;SDS011;49455;52.252;9.124;2023-06-14T15:51:45;7.63;;;4.32;;
49153;SDS011;49455;52.252;9.124;2023-06-14T15:56:46;7.00;;;4.40;;
49153;SDS011;49455;52.252;9.124;2023-06-14T16:01:46;8.70;;;4.43;;
49153;SDS011;49455;52.252;9.124;2023-06-14T16:06:46;9.30;;;4.03;;
49153;SDS011;49455;52.252;9.124;2023-06-14T16:11:47;5.97;;;4.13;;
49153;SDS011;49455;52.252;9.124;2023-06-14T16:16:48;7.47;;;4.35;;
49153;SDS011;49455;52.252;9.124;2023-06-14T16:21:48;7.57;;;4.50;;
49153;SDS011;49455;52.252;9.124;2023-06-14T16:26:48;6.87;;;4.27;;
49153;SDS011;49455;52.252;9.124;2023-06-14T16:31:49;6.67;;;4.23;;
49153;SDS011;49455;52.252;9.124;2023-06-14T16:36:49;6.95;;;4.30;;
49153;SDS011;49455;52.252;9.124;2023-06-14T16:41:50;7.17;;;4.67;;
49153;SDS011;49455;52.252;9.124;2023-06-14T16:46:50;9.37;;;4.00;;
49153;SDS011;49455;52.252;9.124;2023-06-14T16:51:50;7.50;;;3.93;;
49153;SDS011;49455;52.252;9.124;2023-06-14T16:56:51;5.33;;;4.20;;
49153;SDS011;49455;52.252;9.124;2023-06-14T17:01:51;7.87;;;4.20;;
49153;SDS011;49455;52.252;9.124;2023-06-14T17:06:51;6.45;;;3.92;;
49153;SDS011;49455;52.252;9.124;2023-06-14T17:11:52;7.90;;;3.83;;
49153;SDS011;49455;52.252;9.124;2023-06-14T17:16:52;7.40;;;4.00;;
49153;SDS011;49455;52.252;9.124;2023-06-14T17:21:53;7.50;;;4.40;;
49153;SDS011;49455;52.252;9.124;2023-06-14T17:26:54;6.17;;;4.17;;
49153;SDS011;49455;52.252;9.124;2023-06-14T17:31:54;8.73;;;4.20;;
49153;SDS011;49455;52.252;9.124;2023-06-14T17:36:55;8.40;;;4.10;;
49153;SDS011;49455;52.252;9.124;2023-06-14T17:41:55;5.63;;;4.10;;
49153;SDS011;49455;52.252;9.124;2023-06-14T17:46:55;6.70;;;4.40;;
49153;SDS011;49455;52.252;9.124;2023-06-14T17:51:56;7.60;;;4.43;;
49153;SDS011;49455;52.252;9.124;2023-06-14T17:56:56;10.80;;;3.97;;
49153;SDS011;49455;52.252;9.124;2023-06-14T18:01:57;7.13;;;4.07;;
49153;SDS011;49455;52.252;9.124;2023-06-14T18:06:57;8.97;;;4.60;;
49153;SDS011;49455;52.252;9.124;2023-06-14T18:11:57;6.13;;;3.53;;
49153;SDS011;49455;52.252;9.124;2023-06-14T18:16:58;6.40;;;4.50;;
49153;SDS011;49455;52.252;9.124;2023-06-14T18:21:58;10.83;;;4.10;;
49153;SDS011;49455;52.252;9.124;2023-06-14T18:26:58;7.33;;;4.43;;
49153;SDS011;49455;52.252;9.124;2023-06-14T18:31:59;10.53;;;4.10;;
49153;SDS011;49455;52.252;9.124;2023-06-14T18:36:59;6.43;;;4.35;;
49153;SDS011;49455;52.252;9.124;2023-06-14T18:42:00;6.83;;;4.30;;
49153;SDS011;49455;52.252;9.124;2023-06-14T18:47:00;6.67;;;4.47;;
49153;SDS011;49455;52.252;9.124;2023-06-14T18:52:00;8.47;;;3.87;;
49153;SDS011;49455;52.252;9.124;2023-06-14T18:57:01;5.30;;;3.70;;
49153;SDS011;49455;52.252;9.124;2023-06-14T19:02:02;8.90;;;3.92;;
49153;SDS011;49455;52.252;9.124;2023-06-14T19:07:02;7.35;;;4.20;;
49153;SDS011;49455;52.252;9.124;2023-06-14T19:12:03;6.95;;;4.40;;
49153;SDS011;49455;52.252;9.124;2023-06-14T19:17:04;8.75;;;4.57;;
49153;SDS011;49455;52.252;9.124;2023-06-14T19:22:04;7.65;;;3.92;;
49153;SDS011;49455;52.252;9.124;2023-06-14T19:27:05;9.57;;;4.18;;
49153;SDS011;49455;52.252;9.124;2023-06-14T19:32:06;8.00;;;4.37;;
49153;SDS011;49455;52.252;9.124;2023-06-14T19:37:06;6.55;;;4.20;;
49153;SDS011;49455;52.252;9.124;2023-06-14T19:42:07;6.53;;;4.10;;
49153;SDS011;49455;52.252;9.124;2023-06-14T19:47:07;8.03;;;3.93;;
49153;SDS011;49455;52.252;9.124;2023-06-14T19:52:08;9.75;;;4.35;;
49153;SDS011;49455;52.252;9.124;2023-06-14T19:57:08;6.28;;;3.97;;
49153;SDS011;49455;52.252;9.124;2023-06-14T20:02:08;6.87;;;4.23;;
49153;SDS011;49455;52.252;9.124;2023-06-14T20:07:09;5.90;;;4.20;;
49153;SDS011;49455;52.252;9.124;2023-06-14T20:12:09;6.83;;;4.27;;
49153;SDS011;49455;52.252;9.124;2023-06-14T20:17:10;6.45;;;4.10;;
49153;SDS011;49455;52.252;9.124;2023-06-14T20:22:10;5.80;;;4.00;;
49153;SDS011;49455;52.252;9.124;2023-06-14T20:27:10;6.55;;;3.95;;
49153;SDS011;49455;52.252;9.124;2023-06-14T20:32:11;9.10;;;4.20;;
49153;SDS011;49455;52.252;9.124;2023-06-14T20:37:11;6.30;;;4.03;;
49153;SDS011;49455;52.252;9.124;2023-06-14T20:42:12;5.83;;;3.87;;
49153;SDS011;49455;52.252;9.124;2023-06-14T20:47:12;7.07;;;4.20;;
49153;SDS011;49455;52.252;9.124;2023-06-14T20:52:12;6.60;;;4.17;;
49153;SDS011;49455;52.252;9.124;2023-06-14T20:57:14;8.45;;;4.22;;
49153;SDS011;49455;52.252;9.124;2023-06-14T21:02:15;8.82;;;4.40;;
49153;SDS011;49455;52.252;9.124;2023-06-14T21:07:15;10.10;;;4.40;;
49153;SDS011;49455;52.252;9.124;2023-06-14T21:12:16;9.90;;;4.80;;
49153;SDS011;49455;52.252;9.124;2023-06-14T21:17:16;6.97;;;4.73;;
49153;SDS011;49455;52.252;9.124;2023-06-14T21:22:17;8.30;;;4.70;;
49153;SDS011;49455;52.252;9.124;2023-06-14T21:27:17;7.40;;;4.40;;
49153;SDS011;49455;52.252;9.124;2023-06-14T21:32:17;7.70;;;4.47;;
49153;SDS011;49455;52.252;9.124;2023-06-14T21:37:18;8.38;;;5.20;;
49153;SDS011;49455;52.252;9.124;2023-06-14T21:42:18;7.63;;;4.90;;
49153;SDS011;49455;52.252;9.124;2023-06-14T21:47:19;10.02;;;5.10;;
49153;SDS011;49455;52.252;9.124;2023-06-14T21:52:19;7.05;;;4.68;;
49153;SDS011;49455;52.252;9.124;2023-06-14T21:57:19;8.02;;;4.60;;
49153;SDS011;49455;52.252;9.124;2023-06-14T22:02:20;10.45;;;4.55;;
49153;SDS011;49455;52.252;9.124;2023-06-14T22:07:21;9.52;;;5.05;;
49153;SDS011;49455;52.252;9.124;2023-06-14T22:12:21;10.37;;;4.80;;
49153;SDS011;49455;52.252;9.124;2023-06-14T22:17:22;7.27;;;4.70;;
49153;SDS011;49455;52.252;9.124;2023-06-14T22:22:22;6.35;;;4.68;;
49153;SDS011;49455;52.252;9.124;2023-06-14T22:27:23;5.83;;;4.37;;
49153;SDS011;49455;52.252;9.124;2023-06-14T22:32:24;8.18;;;4.57;;
49153;SDS011;49455;52.252;9.124;2023-06-14T22:37:27;11.38;;;4.55;;
49153;SDS011;49455;52.252;9.124;2023-06-14T22:42:27;6.80;;;4.30;;
49153;SDS011;49455;52.252;9.124;2023-06-14T22:47:28;8.52;;;4.55;;
49153;SDS011;49455;52.252;9.124;2023-06-14T22:52:28;7.07;;;4.10;;
49153;SDS011;49455;52.252;9.124;2023-06-14T22:57:29;6.47;;;4.25;;
49153;SDS011;49455;52.252;9.124;2023-06-14T23:02:29;7.63;;;4.15;;
49153;SDS011;49455;52.252;9.124;2023-06-14T23:07:30;6.83;;;4.43;;
49153;SDS011;49455;52.252;9.124;2023-06-14T23:12:30;8.10;;;4.30;;
49153;SDS011;49455;52.252;9.124;2023-06-14T23:17:30;8.93;;;4.07;;
49153;SDS011;49455;52.252;9.124;2023-06-14T23:22:31;7.57;;;4.10;;
49153;SDS011;49455;52.252;9.124;2023-06-14T23:27:32;6.10;;;4.07;;
49153;SDS011;49455;52.252;9.124;2023-06-14T23:32:33;7.82;;;4.40;;
49153;SDS011;49455;52.252;9.124;2023-06-14T23:37:34;7.00;;;4.15;;
49153;SDS011;49455;52.252;9.124;2023-06-14T23:42:34;6.78;;;4.20;;
49153;SDS011;49455;52.252;9.124;2023-06-14T23:47:35;7.10;;;4.05;;
49153;SDS011;49455;52.252;9.124;2023-06-14T23:52:38;7.95;;;4.50;;
49153;SDS011;49455;52.252;9.124;2023-06-14T23:57:38;6.88;;;4.15;;
